Time;durP1;ratioP1;P1;durP2;ratioP2;P2;SDS_P1;SDS_P2;PMS_P1;PMS_P2;Temp;Humidity;BMP_temperature;BMP_pressure;BME280_temperature;BME280_humidity;BME280_pressure;Samples;Min_cycle;Max_cycle;Signal;HPM_P1;HPM_P2
2024/01/15 00:00:08;;;;;;;6.93;1.60;;;;;;;;;;5021736;28;20402;-63
2024/01/15 00:02:33;;;;;;;5.68;1.67;;;;;;;;;;5024537;28;20894;-63
2024/01/15 00:04:59;;;;;;;7.07;1.77;;;;;;;;;;5014459;28;20433;-63
2024/01/15 00:07:24;;;;;;;6.80;1.60;;;;;;;;;;5032842;28;20400;-63
2024/01/15 00:09:49;;;;;;;6.03;1.70;;;;;;;;;;5033308;28;21220;-62
2024/01/15 00:12:14;;;;;;;4.97;1.20;;;;;;;;;;5022561;28;20411;-63
2024/01/15 00:14:40;;;;;;;6.40;1.40;;;;;;;;;;5022266;28;20886;-62
2024/01/15 00:17:05;;;;;;;4.67;1.20;;;;;;;;;;5021552;28;20387;-63
2024/01/15 00:19:32;;;;;;;5.35;1.25;;;;;;;;;;5025082;28;21062;-63
2024/01/15 00:21:57;;;;;;;4.97;1.20;;;;;;;;;;5021485;28;20414;-63
2024/01/15 00:24:22;;;;;;;7.07;1.20;;;;;;;;;;5021296;28;20399;-63
2024/01/15 00:26:48;;;;;;;6.50;1.30;;;;;;;;;;5016170;28;20469;-62
2024/01/15 00:29:13;;;;;;;5.63;1.60;;;;;;;;;;5013124;28;20842;-63
2024/01/15 00:31:38;;;;;;;4.30;1.27;;;;;;;;;;5013487;28;20403;-62
2024/01/15 00:34:03;;;;;;;6.27;1.50;;;;;;;;;;5017796;28;20414;-63
2024/01/15 00:36:29;;;;;;;6.57;1.30;;;;;;;;;;5021253;28;20395;-62
2024/01/15 00:38:54;;;;;;;7.03;1.20;;;;;;;;;;5036414;28;20502;-63
2024/01/15 00:41:19;;;;;;;7.47;1.60;;;;;;;;;;5039656;28;20393;-63
2024/01/15 00:43:45;;;;;;;5.50;1.20;;;;;;;;;;5040411;28;20463;-62
2024/01/15 00:46:10;;;;;;;6.38;1.33;;;;;;;;;;5020458;28;20482;-62
2024/01/15 00:48:36;;;;;;;6.93;1.30;;;;;;;;;;5000677;28;20414;-63
2024/01/15 00:51:01;;;;;;;7.07;1.30;;;;;;;;;;5013244;28;20930;-63
2024/01/15 00:53:26;;;;;;;9.13;1.43;;;;;;;;;;5012544;28;20403;-62
2024/01/15 00:55:52;;;;;;;7.33;1.30;;;;;;;;;;5015845;28;20413;-63
2024/01/15 00:58:17;;;;;;;7.70;1.83;;;;;;;;;;5002954;28;20763;-63
2024/01/15 01:00:42;;;;;;;6.93;1.50;;;;;;;;;;5021022;28;20494;-62
2024/01/15 01:03:08;;;;;;;6.53;1.20;;;;;;;;;;5036242;28;20423;-63
2024/01/15 01:05:33;;;;;;;9.48;1.60;;;;;;;;;;5020987;28;20731;-62
2024/01/15 01:07:59;;;;;;;7.13;1.70;;;;;;;;;;5020198;28;20402;-62
2024/01/15 01:10:24;;;;;;;7.63;1.40;;;;;;;;;;5020427;28;20395;-63
2024/01/15 01:12:49;;;;;;;6.73;1.43;;;;;;;;;;5014018;28;20399;-62
2024/01/15 01:15:14;;;;;;;5.67;1.33;;;;;;;;;;5011890;28;20391;-62
2024/01/15 01:17:40;;;;;;;7.13;1.30;;;;;;;;;;5013655;28;20485;-62
2024/01/15 01:20:08;;;;;;;6.63;1.43;;;;;;;;;;5019431;28;20501;-63
2024/01/15 01:22:33;;;;;;;8.00;1.55;;;;;;;;;;5039729;28;20393;-62
2024/01/15 01:24:58;;;;;;;8.52;1.48;;;;;;;;;;5040239;28;20893;-63
2024/01/15 01:27:24;;;;;;;6.33;1.37;;;;;;;;;;5040209;28;20935;-62
2024/01/15 01:29:49;;;;;;;6.97;1.50;;;;;;;;;;5039791;28;20401;-62
2024/01/15 01:32:14;;;;;;;8.27;1.30;;;;;;;;;;5039760;28;20471;-62
2024/01/15 01:34:41;;;;;;;6.40;1.50;;;;;;;;;;5035701;28;20389;-62
2024/01/15 01:37:07;;;;;;;7.82;1.58;;;;;;;;;;5030842;28;20401;-63
2024/01/15 01:39:32;;;;;;;7.50;1.60;;;;;;;;;;5020351;28;21151;-62
2024/01/15 01:41:57;;;;;;;7.70;1.57;;;;;;;;;;5017973;28;20890;-62
2024/01/15 01:44:23;;;;;;;8.87;1.50;;;;;;;;;;5019536;28;20474;-62
2024/01/15 01:46:48;;;;;;;7.50;1.73;;;;;;;;;;5020770;28;20782;-62
2024/01/15 01:49:13;;;;;;;8.30;1.63;;;;;;;;;;5020173;28;20744;-62
2024/01/15 01:51:39;;;;;;;7.10;1.47;;;;;;;;;;5019891;28;20469;-62
2024/01/15 01:54:05;;;;;;;8.23;1.48;;;;;;;;;;5020031;28;20398;-63
2024/01/15 01:56:30;;;;;;;8.95;1.83;;;;;;;;;;5017249;28;20914;-62
2024/01/15 01:58:55;;;;;;;6.67;1.50;;;;;;;;;;4994948;28;20421;-62
2024/01/15 02:01:21;;;;;;;7.97;1.60;;;;;;;;;;5027723;28;20554;-62
2024/01/15 02:03:46;;;;;;;7.17;1.53;;;;;;;;;;5014615;28;20433;-62
2024/01/15 02:06:11;;;;;;;10.00;1.70;;;;;;;;;;5020116;28;20438;-62
2024/01/15 02:08:36;;;;;;;9.75;1.90;;;;;;;;;;5020307;28;20740;-62
2024/01/15 02:11:02;;;;;;;8.87;1.57;;;;;;;;;;5034130;28;20417;-62
2024/01/15 02:13:27;;;;;;;8.07;1.40;;;;;;;;;;5020456;28;20445;-62
2024/01/15 02:15:52;;;;;;;8.50;1.77;;;;;;;;;;5036212;28;20486;-62
2024/01/15 02:18:18;;;;;;;9.43;1.70;;;;;;;;;;5023051;28;20508;-62
2024/01/15 02:20:44;;;;;;;6.83;1.37;;;;;;;;;;5016341;28;20834;-62
2024/01/15 02:23:10;;;;;;;9.88;1.65;;;;;;;;;;5034754;28;20475;-62
2024/01/15 02:25:36;;;;;;;8.27;1.63;;;;;;;;;;5035111;28;20409;-62
2024/01/15 02:28:01;;;;;;;8.48;1.55;;;;;;;;;;5042897;28;20504;-63
2024/01/15 02:30:27;;;;;;;8.80;1.57;;;;;;;;;;5025686;28;20812;-62
2024/01/15 02:32:52;;;;;;;7.35;1.75;;;;;;;;;;5042998;28;20455;-62
2024/01/15 02:35:18;;;;;;;8.00;1.70;;;;;;;;;;5024842;28;20988;-62
2024/01/15 02:37:43;;;;;;;9.47;2.20;;;;;;;;;;5043541;28;20400;-62
2024/01/15 02:40:08;;;;;;;6.90;1.50;;;;;;;;;;5025414;28;20828;-62
2024/01/15 02:42:33;;;;;;;9.15;1.50;;;;;;;;;;5037446;28;20405;-62
2024/01/15 02:44:59;;;;;;;9.17;2.00;;;;;;;;;;5024561;28;20957;-62
2024/01/15 02:47:24;;;;;;;8.77;1.60;;;;;;;;;;5014466;28;20457;-62
2024/01/15 02:49:49;;;;;;;11.37;1.90;;;;;;;;;;5020961;28;20501;-63
2024/01/15 02:52:15;;;;;;;8.65;1.63;;;;;;;;;;5023105;28;20405;-62
2024/01/15 02:54:40;;;;;;;9.50;1.63;;;;;;;;;;5042281;28;21392;-62
2024/01/15 02:57:05;;;;;;;9.53;1.67;;;;;;;;;;5042204;28;20827;-62
2024/01/15 02:59:31;;;;;;;9.43;1.90;;;;;;;;;;5043099;28;20444;-62
2024/01/15 03:01:56;;;;;;;6.80;1.40;;;;;;;;;;5029697;28;20410;-62
2024/01/15 03:04:21;;;;;;;10.47;1.80;;;;;;;;;;5019394;28;20458;-62
2024/01/15 03:06:46;;;;;;;9.03;1.77;;;;;;;;;;5034005;28;20405;-62
2024/01/15 03:09:12;;;;;;;6.90;1.60;;;;;;;;;;5034145;28;20397;-62
2024/01/15 03:11:38;;;;;;;7.50;1.80;;;;;;;;;;5026216;28;20883;-62
2024/01/15 03:14:03;;;;;;;8.18;1.40;;;;;;;;;;5022175;28;20399;-62
2024/01/15 03:16:29;;;;;;;6.70;1.37;;;;;;;;;;5023092;28;20402;-62
2024/01/15 03:18:54;;;;;;;6.20;1.20;;;;;;;;;;5023218;28;20746;-62
2024/01/15 03:21:19;;;;;;;7.43;1.47;;;;;;;;;;5021896;28;20372;-62
2024/01/15 03:23:44;;;;;;;6.13;1.10;;;;;;;;;;5022791;28;20417;-62
2024/01/15 03:26:10;;;;;;;6.77;1.20;;;;;;;;;;5021847;28;20399;-62
2024/01/15 03:28:35;;;;;;;6.30;1.17;;;;;;;;;;5014386;28;21374;-62
2024/01/15 03:31:00;;;;;;;6.23;1.40;;;;;;;;;;5014745;28;20398;-63
2024/01/15 03:33:25;;;;;;;6.30;1.20;;;;;;;;;;5015141;28;20387;-62
2024/01/15 03:35:51;;;;;;;6.75;1.08;;;;;;;;;;5022125;28;20464;-61
2024/01/15 03:38:16;;;;;;;7.07;1.30;;;;;;;;;;5022253;28;20403;-62
2024/01/15 03:40:42;;;;;;;4.43;1.00;;;;;;;;;;5022695;28;20399;-62
2024/01/15 03:43:07;;;;;;;8.35;1.58;;;;;;;;;;5021364;28;20434;-62
2024/01/15 03:45:32;;;;;;;8.67;1.30;;;;;;;;;;5023027;28;20395;-62
2024/01/15 03:47:57;;;;;;;6.37;1.00;;;;;;;;;;5022464;28;20414;-62
2024/01/15 03:50:23;;;;;;;6.63;1.20;;;;;;;;;;5015612;28;20383;-62
2024/01/15 03:52:48;;;;;;;7.23;1.30;;;;;;;;;;5033952;28;20420;-62
2024/01/15 03:55:13;;;;;;;9.07;1.40;;;;;;;;;;5033669;28;20985;-62
2024/01/15 03:57:39;;;;;;;8.17;1.70;;;;;;;;;;5039076;28;20402;-62
2024/01/15 04:00:04;;;;;;;7.87;1.40;;;;;;;;;;5041086;28;20760;-62
2024/01/15 04:02:30;;;;;;;6.65;1.30;;;;;;;;;;5025432;28;20488;-62
2024/01/15 04:04:55;;;;;;;7.80;1.37;;;;;;;;;;5021361;28;20411;-62
2024/01/15 04:07:20;;;;;;;7.00;1.20;;;;;;;;;;5021748;28;20739;-62
2024/01/15 04:09:45;;;;;;;6.00;1.10;;;;;;;;;;5022140;28;20407;-62
2024/01/15 04:12:11;;;;;;;5.97;1.23;;;;;;;;;;5017823;28;20751;-62
2024/01/15 04:14:36;;;;;;;6.43;1.10;;;;;;;;;;5017643;28;20396;-62
2024/01/15 04:17:01;;;;;;;6.57;1.17;;;;;;;;;;5040828;28;20396;-63
2024/01/15 04:19:26;;;;;;;6.13;1.30;;;;;;;;;;5051103;28;20896;-62
2024/01/15 04:21:52;;;;;;;6.63;1.10;;;;;;;;;;5051480;28;20485;-62
2024/01/15 04:24:17;;;;;;;5.27;1.00;;;;;;;;;;5050491;28;20746;-62
2024/01/15 04:26:45;;;;;;;6.07;1.20;;;;;;;;;;5050790;28;21383;-62
2024/01/15 04:29:10;;;;;;;5.78;1.20;;;;;;;;;;5051154;28;20941;-62
2024/01/15 04:31:35;;;;;;;3.80;0.90;;;;;;;;;;5050861;28;20841;-62
2024/01/15 04:34:01;;;;;;;3.60;1.00;;;;;;;;;;5051171;28;20401;-63
2024/01/15 04:36:26;;;;;;;6.57;0.90;;;;;;;;;;5051234;28;20398;-62
2024/01/15 04:38:51;;;;;;;4.90;0.90;;;;;;;;;;5050260;28;20488;-61
2024/01/15 04:41:16;;;;;;;5.87;1.30;;;;;;;;;;5050654;28;20398;-62
2024/01/15 04:43:42;;;;;;;5.60;1.10;;;;;;;;;;5051143;28;20390;-62
2024/01/15 04:46:07;;;;;;;6.30;1.20;;;;;;;;;;5049878;28;20398;-62
2024/01/15 04:48:32;;;;;;;6.03;1.30;;;;;;;;;;5051195;28;20390;-62
2024/01/15 04:50:58;;;;;;;6.23;1.27;;;;;;;;;;5051390;28;20405;-62
2024/01/15 04:53:23;;;;;;;7.23;1.47;;;;;;;;;;5050048;28;20869;-62
2024/01/15 04:55:48;;;;;;;7.63;1.30;;;;;;;;;;5051064;28;20404;-62
2024/01/15 04:58:14;;;;;;;6.10;1.47;;;;;;;;;;5050486;28;20889;-62
2024/01/15 05:00:39;;;;;;;8.47;1.50;;;;;;;;;;5050246;28;20394;-62
2024/01/15 05:03:04;;;;;;;8.20;2.07;;;;;;;;;;5050288;28;20416;-62
2024/01/15 05:05:29;;;;;;;8.80;1.50;;;;;;;;;;5051186;28;20863;-62
2024/01/15 05:07:55;;;;;;;7.73;1.47;;;;;;;;;;5050000;28;20401;-61
2024/01/15 05:10:20;;;;;;;7.57;1.50;;;;;;;;;;5050549;28;20388;-62
2024/01/15 05:12:45;;;;;;;8.03;1.47;;;;;;;;;;5050835;28;20402;-62
2024/01/15 05:15:11;;;;;;;9.13;1.70;;;;;;;;;;5032577;28;20447;-62
2024/01/15 05:17:36;;;;;;;8.40;1.60;;;;;;;;;;5013577;28;20394;-62
2024/01/15 05:20:03;;;;;;;6.63;1.40;;;;;;;;;;5001455;28;20502;-62
2024/01/15 05:22:28;;;;;;;7.18;1.50;;;;;;;;;;5020371;28;20427;-62
2024/01/15 05:24:53;;;;;;;6.87;1.50;;;;;;;;;;5020968;28;20430;-62
2024/01/15 05:27:19;;;;;;;9.18;1.80;;;;;;;;;;5020503;28;20497;-62
2024/01/15 05:29:44;;;;;;;10.70;1.83;;;;;;;;;;5039737;28;20733;-62
2024/01/15 05:32:09;;;;;;;9.03;1.63;;;;;;;;;;5039918;28;20397;-61
2024/01/15 05:34:35;;;;;;;7.55;1.42;;;;;;;;;;5036074;28;20393;-61
2024/01/15 05:37:00;;;;;;;7.93;1.67;;;;;;;;;;5032437;28;20539;-62
2024/01/15 05:39:25;;;;;;;11.53;1.83;;;;;;;;;;5031629;28;20399;-62
2024/01/15 05:41:51;;;;;;;7.80;1.60;;;;;;;;;;5035857;28;20511;-61
2024/01/15 05:44:16;;;;;;;8.77;1.60;;;;;;;;;;5035159;28;20918;-62
2024/01/15 05:46:41;;;;;;;9.43;1.77;;;;;;;;;;5020714;28;20403;-62
2024/01/15 05:49:07;;;;;;;8.43;1.43;;;;;;;;;;5019428;28;20410;-62
2024/01/15 05:51:32;;;;;;;7.30;1.90;;;;;;;;;;5022297;28;20718;-62
2024/01/15 05:53:57;;;;;;;8.80;1.70;;;;;;;;;;5024698;28;20538;-61
2024/01/15 05:56:24;;;;;;;7.60;1.70;;;;;;;;;;5021893;28;20449;-62
2024/01/15 05:58:49;;;;;;;8.18;1.63;;;;;;;;;;5036113;28;20429;-62
2024/01/15 06:01:14;;;;;;;8.75;1.92;;;;;;;;;;5028758;28;20434;-62
2024/01/15 06:03:40;;;;;;;7.63;1.70;;;;;;;;;;5017500;28;20429;-62
2024/01/15 06:06:05;;;;;;;6.70;1.60;;;;;;;;;;5024117;28;20402;-62
2024/01/15 06:08:30;;;;;;;10.00;1.60;;;;;;;;;;5024406;28;20391;-62
2024/01/15 06:10:56;;;;;;;8.25;1.70;;;;;;;;;;5023545;28;20497;-62
2024/01/15 06:13:21;;;;;;;6.80;1.60;;;;;;;;;;5023832;28;20379;-62
2024/01/15 06:15:47;;;;;;;7.60;3.13;;;;;;;;;;5024319;28;20902;-62
2024/01/15 06:18:12;;;;;;;25.35;21.38;;;;;;;;;;5023012;28;20406;-62
2024/01/15 06:20:38;;;;;;;28.17;25.37;;;;;;;;;;5017630;28;20410;-62
2024/01/15 06:23:03;;;;;;;12.75;9.05;;;;;;;;;;5015322;28;20445;-62
2024/01/15 06:25:29;;;;;;;22.33;19.93;;;;;;;;;;5015672;28;20407;-62
2024/01/15 06:27:54;;;;;;;19.92;17.92;;;;;;;;;;5022770;28;20858;-62
2024/01/15 06:30:19;;;;;;;38.87;35.13;;;;;;;;;;5023756;28;21563;-62
2024/01/15 06:32:44;;;;;;;28.20;25.43;;;;;;;;;;5022983;28;20402;-63
2024/01/15 06:35:11;;;;;;;25.43;22.87;;;;;;;;;;5023441;28;20395;-62
2024/01/15 06:37:36;;;;;;;22.40;20.10;;;;;;;;;;5023653;28;20403;-62
2024/01/15 06:40:02;;;;;;;16.93;15.13;;;;;;;;;;5023009;28;20813;-63
2024/01/15 06:42:28;;;;;;;29.52;26.60;;;;;;;;;;5019570;28;20391;-62
2024/01/15 06:44:53;;;;;;;53.83;48.80;;;;;;;;;;5030078;28;20410;-62
2024/01/15 06:47:18;;;;;;;21.60;19.40;;;;;;;;;;5015563;28;20951;-63
2024/01/15 06:49:44;;;;;;;38.70;35.17;;;;;;;;;;5019336;28;20458;-63
2024/01/15 06:52:09;;;;;;;25.60;23.10;;;;;;;;;;5022362;28;20403;-63
2024/01/15 06:54:35;;;;;;;22.97;20.83;;;;;;;;;;5007961;28;20887;-63
2024/01/15 06:57:00;;;;;;;31.40;28.33;;;;;;;;;;5023705;28;20445;-63
2024/01/15 06:59:25;;;;;;;7.80;3.83;;;;;;;;;;5022065;28;20470;-63
2024/01/15 07:01:51;;;;;;;25.83;23.33;;;;;;;;;;5012523;28;21005;-64
2024/01/15 07:04:16;;;;;;;20.17;18.20;;;;;;;;;;5021526;28;20407;-64
2024/01/15 07:06:41;;;;;;;31.10;28.27;;;;;;;;;;5015336;28;20771;-64
2024/01/15 07:09:07;;;;;;;39.97;36.50;;;;;;;;;;5014839;28;20431;-64
2024/01/15 07:11:33;;;;;;;79.35;71.95;;;;;;;;;;5016522;28;20701;-64
2024/01/15 07:13:58;;;;;;;13.65;11.30;;;;;;;;;;5023677;28;20484;-64
2024/01/15 07:16:23;;;;;;;7.30;5.20;;;;;;;;;;5036829;28;20444;-64
2024/01/15 07:18:49;;;;;;;10.47;7.87;;;;;;;;;;5023596;28;20402;-64
2024/01/15 07:21:14;;;;;;;15.50;13.80;;;;;;;;;;5021777;28;20415;-64
2024/01/15 07:23:40;;;;;;;19.15;17.15;;;;;;;;;;5042058;28;20931;-64
2024/01/15 07:26:05;;;;;;;26.23;23.47;;;;;;;;;;5042151;28;20393;-64
2024/01/15 07:28:30;;;;;;;7.47;5.20;;;;;;;;;;5035723;28;20485;-64
2024/01/15 07:30:55;;;;;;;10.40;7.65;;;;;;;;;;5034135;28;20402;-64
2024/01/15 07:33:21;;;;;;;25.60;22.83;;;;;;;;;;5033886;28;20403;-64
2024/01/15 07:35:46;;;;;;;48.00;43.07;;;;;;;;;;5040039;28;20481;-64
2024/01/15 07:38:11;;;;;;;32.03;28.43;;;;;;;;;;5051011;28;20424;-64
2024/01/15 07:40:37;;;;;;;22.63;18.37;;;;;;;;;;5052279;28;20394;-62
2024/01/15 07:43:02;;;;;;;15.97;14.30;;;;;;;;;;5051295;28;20408;-64
2024/01/15 07:45:28;;;;;;;35.93;32.20;;;;;;;;;;5052034;28;20394;-63
2024/01/15 07:47:53;;;;;;;9.68;8.57;;;;;;;;;;5051329;28;20790;-64
2024/01/15 07:50:18;;;;;;;10.70;9.67;;;;;;;;;;5050034;28;20916;-64
2024/01/15 07:52:44;;;;;;;70.63;48.97;;;;;;;;;;5034081;28;20416;-64
2024/01/15 07:55:09;;;;;;;12.23;9.02;;;;;;;;;;5050466;28;20527;-64
2024/01/15 07:57:35;;;;;;;6.80;5.03;;;;;;;;;;5051734;28;20412;-65
2024/01/15 08:00:01;;;;;;;6.75;4.70;;;;;;;;;;5050957;28;20927;-65
2024/01/15 08:02:27;;;;;;;6.80;4.80;;;;;;;;;;5050298;28;20405;-64
2024/01/15 08:04:52;;;;;;;6.83;4.87;;;;;;;;;;5050913;28;20951;-64
2024/01/15 08:07:17;;;;;;;6.78;5.28;;;;;;;;;;5050681;28;20439;-63
2024/01/15 08:09:43;;;;;;;5.87;4.30;;;;;;;;;;5050662;28;20404;-63
2024/01/15 08:12:09;;;;;;;4.87;3.70;;;;;;;;;;5048362;28;20406;-64
2024/01/15 08:14:35;;;;;;;5.38;3.75;;;;;;;;;;5050491;28;20889;-64
2024/01/15 08:17:01;;;;;;;5.60;3.70;;;;;;;;;;5032661;28;20451;-64
2024/01/15 08:19:26;;;;;;;4.57;3.20;;;;;;;;;;5050686;28;20382;-64
2024/01/15 08:21:52;;;;;;;5.10;3.27;;;;;;;;;;5051140;28;20419;-64
2024/01/15 08:24:17;;;;;;;4.37;3.13;;;;;;;;;;5049798;28;20406;-64
2024/01/15 08:26:42;;;;;;;4.07;3.07;;;;;;;;;;5051152;28;20889;-65
2024/01/15 08:29:08;;;;;;;4.20;2.87;;;;;;;;;;5050437;28;20732;-64
2024/01/15 08:31:33;;;;;;;4.60;3.67;;;;;;;;;;5049990;28;20473;-65
2024/01/15 08:33:59;;;;;;;3.90;3.00;;;;;;;;;;5051024;28;20455;-64
2024/01/15 08:36:24;;;;;;;4.35;3.13;;;;;;;;;;5050285;28;20390;-64
2024/01/15 08:38:50;;;;;;;7.07;4.03;;;;;;;;;;5049038;28;20850;-64
2024/01/15 08:41:15;;;;;;;4.57;3.27;;;;;;;;;;5049822;28;20413;-64
2024/01/15 08:43:40;;;;;;;3.37;2.50;;;;;;;;;;5050792;28;20418;-65
2024/01/15 08:46:06;;;;;;;3.40;2.47;;;;;;;;;;5046179;28;20433;-67
2024/01/15 08:48:31;;;;;;;5.28;3.70;;;;;;;;;;5050941;28;20393;-67
2024/01/15 08:50:56;;;;;;;4.30;3.70;;;;;;;;;;5032249;28;20413;-67
2024/01/15 08:53:22;;;;;;;5.73;3.93;;;;;;;;;;5049720;28;20942;-67
2024/01/15 08:55:47;;;;;;;4.85;3.75;;;;;;;;;;5056978;28;20395;-66
2024/01/15 08:58:13;;;;;;;4.77;3.20;;;;;;;;;;5070733;28;20408;-66
2024/01/15 09:00:38;;;;;;;6.37;4.30;;;;;;;;;;5068148;28;20450;-67
2024/01/15 09:03:03;;;;;;;5.37;3.47;;;;;;;;;;5049428;28;20457;-66
2024/01/15 09:05:29;;;;;;;4.00;2.50;;;;;;;;;;5047725;28;20726;-66
2024/01/15 09:07:54;;;;;;;3.23;2.23;;;;;;;;;;5049608;28;20404;-66
2024/01/15 09:10:20;;;;;;;3.78;2.10;;;;;;;;;;5050061;28;20757;-66
2024/01/15 09:12:45;;;;;;;3.50;2.10;;;;;;;;;;5050088;28;20401;-66
2024/01/15 09:15:10;;;;;;;3.50;2.10;;;;;;;;;;5050416;28;20439;-66
2024/01/15 09:17:35;;;;;;;3.83;2.10;;;;;;;;;;5050933;28;20499;-66
2024/01/15 09:20:01;;;;;;;3.80;2.20;;;;;;;;;;5029307;28;20425;-66
2024/01/15 09:22:26;;;;;;;4.87;1.87;;;;;;;;;;5031104;28;20410;-66
2024/01/15 09:24:52;;;;;;;4.33;1.80;;;;;;;;;;5031274;28;20912;-66
2024/01/15 09:27:17;;;;;;;3.83;1.83;;;;;;;;;;5036281;28;20494;-66
2024/01/15 09:29:45;;;;;;;5.20;1.80;;;;;;;;;;5037565;28;20477;-66
2024/01/15 09:32:10;;;;;;;2.97;1.58;;;;;;;;;;5036915;28;20407;-65
2024/01/15 09:34:35;;;;;;;2.90;1.50;;;;;;;;;;5036687;28;20399;-66
2024/01/15 09:37:01;;;;;;;2.60;1.30;;;;;;;;;;5036886;28;20432;-66
2024/01/15 09:39:27;;;;;;;6.03;1.80;;;;;;;;;;5037589;28;20402;-67
2024/01/15 09:41:52;;;;;;;3.40;1.63;;;;;;;;;;5062895;28;20400;-66
2024/01/15 09:44:18;;;;;;;4.07;1.90;;;;;;;;;;5038459;28;20482;-67
2024/01/15 09:46:44;;;;;;;4.10;2.05;;;;;;;;;;5057288;28;20423;-66
2024/01/15 09:49:10;;;;;;;5.43;2.00;;;;;;;;;;5055463;28;20393;-66
2024/01/15 09:51:35;;;;;;;4.73;2.17;;;;;;;;;;5057118;28;20392;-66
2024/01/15 09:54:00;;;;;;;4.78;2.00;;;;;;;;;;5056963;28;20414;-66
2024/01/15 09:56:25;;;;;;;5.07;1.93;;;;;;;;;;5063966;28;20388;-66
2024/01/15 09:58:52;;;;;;;4.33;1.90;;;;;;;;;;5075410;28;20404;-66
2024/01/15 10:01:18;;;;;;;4.78;2.25;;;;;;;;;;5051539;28;20401;-65
2024/01/15 10:03:43;;;;;;;5.93;2.00;;;;;;;;;;5037829;28;20484;-64
2024/01/15 10:06:08;;;;;;;6.10;2.13;;;;;;;;;;5038495;28;20447;-66
2024/01/15 10:08:34;;;;;;;6.53;2.33;;;;;;;;;;5057145;28;20401;-66
2024/01/15 10:10:59;;;;;;;6.03;1.90;;;;;;;;;;5038373;28;20477;-65
2024/01/15 10:13:25;;;;;;;4.80;1.73;;;;;;;;;;5057278;28;20397;-65
2024/01/15 10:15:51;;;;;;;8.05;2.30;;;;;;;;;;5038347;28;20397;-65
2024/01/15 10:18:16;;;;;;;5.90;1.67;;;;;;;;;;5055443;28;20397;-65
2024/01/15 10:20:42;;;;;;;4.63;1.50;;;;;;;;;;5038801;28;20446;-65
2024/01/15 10:23:07;;;;;;;4.60;1.70;;;;;;;;;;5055466;28;20484;-65
2024/01/15 10:25:33;;;;;;;3.07;1.33;;;;;;;;;;5056874;28;20413;-65
2024/01/15 10:28:02;;;;;;;5.17;1.40;;;;;;;;;;5055771;28;20402;-65
2024/01/15 10:30:27;;;;;;;3.25;1.00;;;;;;;;;;5055617;28;20393;-65
2024/01/15 10:32:59;;;;;;;4.17;1.30;;;;;;;;;;5056858;28;20904;-65
2024/01/15 10:35:26;;;;;;;3.63;1.10;;;;;;;;;;5055825;28;20377;-65
2024/01/15 10:37:51;;;;;;;2.95;1.10;;;;;;;;;;5052763;28;20909;-66
2024/01/15 10:40:17;;;;;;;4.40;0.90;;;;;;;;;;5035578;28;20404;-65
2024/01/15 10:42:43;;;;;;;4.57;1.20;;;;;;;;;;5035685;28;20393;-65
2024/01/15 10:45:08;;;;;;;3.90;0.90;;;;;;;;;;5052282;28;20410;-65
2024/01/15 10:47:34;;;;;;;3.38;1.20;;;;;;;;;;5035760;28;20397;-66
2024/01/15 10:49:59;;;;;;;3.17;1.10;;;;;;;;;;5052886;28;20730;-65
2024/01/15 10:52:24;;;;;;;5.03;1.40;;;;;;;;;;5034395;28;20432;-65
2024/01/15 10:54:50;;;;;;;4.53;1.25;;;;;;;;;;5053522;28;20401;-65
2024/01/15 10:57:15;;;;;;;4.83;1.20;;;;;;;;;;5034778;28;20401;-65
2024/01/15 10:59:41;;;;;;;4.00;1.00;;;;;;;;;;5034672;28;20443;-64
2024/01/15 11:02:06;;;;;;;6.03;0.90;;;;;;;;;;5052570;28;20401;-65
2024/01/15 11:04:31;;;;;;;3.17;0.90;;;;;;;;;;5051642;28;20394;-65
2024/01/15 11:06:57;;;;;;;4.80;1.10;;;;;;;;;;5051025;28;20831;-65
2024/01/15 11:09:23;;;;;;;4.53;1.23;;;;;;;;;;5051536;28;20373;-66
2024/01/15 11:11:50;;;;;;;4.57;1.20;;;;;;;;;;5052939;28;20404;-65
2024/01/15 11:14:34;;;;;;;4.57;1.20;;;;;;;;;;5050602;28;20912;-65
2024/01/15 11:17:00;;;;;;;5.78;1.33;;;;;;;;;;5052986;28;20406;-65
2024/01/15 11:19:26;;;;;;;3.00;0.90;;;;;;;;;;5051148;28;20398;-65
2024/01/15 11:21:51;;;;;;;3.72;1.17;;;;;;;;;;5052611;28;20486;-65
2024/01/15 11:24:36;;;;;;;5.37;1.20;;;;;;;;;;5059234;28;20428;-65
2024/01/15 11:27:02;;;;;;;4.90;1.30;;;;;;;;;;5047357;28;20467;-65
2024/01/15 11:29:27;;;;;;;3.90;1.10;;;;;;;;;;5035055;28;20405;-65
2024/01/15 11:32:00;;;;;;;6.10;1.50;;;;;;;;;;5052680;28;20488;-65
2024/01/15 11:34:44;;;;;;;6.03;1.50;;;;;;;;;;5050881;28;20438;-65
2024/01/15 11:37:09;;;;;;;4.60;1.25;;;;;;;;;;5051914;28;20398;-64
2024/01/15 11:39:39;;;;;;;3.33;1.20;;;;;;;;;;5052431;28;20400;-63
2024/01/15 11:42:04;;;;;;;4.75;1.20;;;;;;;;;;5051115;28;20416;-64
2024/01/15 11:44:30;;;;;;;5.33;1.57;;;;;;;;;;5052088;28;20428;-64
2024/01/15 11:47:03;;;;;;;4.67;1.50;;;;;;;;;;5052239;28;20429;-64
2024/01/15 11:49:39;;;;;;;4.38;1.42;;;;;;;;;;5049487;28;20509;-64
2024/01/15 11:52:04;;;;;;;6.10;1.20;;;;;;;;;;5034053;28;20420;-64
2024/01/15 11:54:30;;;;;;;5.28;1.45;;;;;;;;;;5033546;28;20826;-64
2024/01/15 11:56:55;;;;;;;5.27;1.37;;;;;;;;;;5034158;28;20401;-64
2024/01/15 11:59:20;;;;;;;4.57;1.17;;;;;;;;;;5033823;28;20386;-64
2024/01/15 12:01:45;;;;;;;5.67;1.50;;;;;;;;;;5033172;28;20455;-63
2024/01/15 12:04:11;;;;;;;5.07;1.20;;;;;;;;;;5051262;28;20972;-63
2024/01/15 12:06:36;;;;;;;5.28;1.25;;;;;;;;;;5052262;28;20405;-64
2024/01/15 12:09:07;;;;;;;5.53;1.20;;;;;;;;;;5050670;28;20401;-63
2024/01/15 12:11:33;;;;;;;7.50;1.40;;;;;;;;;;5034017;28;20480;-64
2024/01/15 12:13:59;;;;;;;5.23;1.47;;;;;;;;;;5052007;28;20480;-64
2024/01/15 12:16:25;;;;;;;7.28;1.48;;;;;;;;;;5050543;28;20475;-64
2024/01/15 12:18:50;;;;;;;6.80;1.60;;;;;;;;;;5051643;28;20888;-64
2024/01/15 12:21:16;;;;;;;6.18;1.33;;;;;;;;;;5051072;28;20959;-64
2024/01/15 12:23:41;;;;;;;5.13;1.40;;;;;;;;;;5050475;28;20417;-64
2024/01/15 12:26:06;;;;;;;5.47;1.20;;;;;;;;;;5051174;28;20390;-63
2024/01/15 12:28:31;;;;;;;6.30;1.60;;;;;;;;;;5031690;28;20389;-63
2024/01/15 12:30:59;;;;;;;5.30;1.42;;;;;;;;;;5050918;28;20421;-63
2024/01/15 12:33:24;;;;;;;4.85;1.30;;;;;;;;;;5050885;28;20472;-63
2024/01/15 12:35:52;;;;;;;5.00;1.20;;;;;;;;;;5033354;28;20488;-63
2024/01/15 12:38:18;;;;;;;4.20;0.90;;;;;;;;;;5050238;28;20494;-63
2024/01/15 12:40:46;;;;;;;4.15;0.95;;;;;;;;;;5051423;28;20416;-64
2024/01/15 12:43:11;;;;;;;3.28;0.90;;;;;;;;;;5050908;28;20397;-65
2024/01/15 12:45:37;;;;;;;2.70;0.80;;;;;;;;;;5032928;28;20915;-65
2024/01/15 12:48:03;;;;;;;3.15;0.60;;;;;;;;;;5048557;28;20762;-65
2024/01/15 12:50:28;;;;;;;2.97;0.60;;;;;;;;;;5032967;28;20405;-65
2024/01/15 12:52:54;;;;;;;1.77;0.60;;;;;;;;;;5050959;28;20879;-65
2024/01/15 12:55:19;;;;;;;2.60;0.60;;;;;;;;;;5032832;28;20397;-65
2024/01/15 12:57:45;;;;;;;2.00;0.60;;;;;;;;;;5050359;28;20393;-64
2024/01/15 13:00:12;;;;;;;2.40;0.70;;;;;;;;;;5032485;28;20792;-64
2024/01/15 13:02:38;;;;;;;2.15;0.50;;;;;;;;;;5050715;28;20425;-63
2024/01/15 13:05:04;;;;;;;1.83;0.40;;;;;;;;;;5050046;28;20503;-64
2024/01/15 13:07:29;;;;;;;1.40;0.47;;;;;;;;;;5050596;28;20476;-64
2024/01/15 13:09:54;;;;;;;1.13;0.50;;;;;;;;;;5051024;28;20405;-65
2024/01/15 13:12:20;;;;;;;1.67;0.60;;;;;;;;;;5049170;28;20405;-64
2024/01/15 13:14:46;;;;;;;1.95;0.60;;;;;;;;;;5050677;28;20757;-64
2024/01/15 13:17:12;;;;;;;2.15;0.68;;;;;;;;;;5050212;28;20409;-64
2024/01/15 13:19:37;;;;;;;2.27;0.70;;;;;;;;;;5060938;28;20392;-64
2024/01/15 13:22:06;;;;;;;2.00;0.57;;;;;;;;;;5070256;28;20488;-64
2024/01/15 13:24:31;;;;;;;3.08;0.70;;;;;;;;;;5071032;28;20402;-64
2024/01/15 13:26:57;;;;;;;2.87;0.80;;;;;;;;;;5070160;28;20400;-63
2024/01/15 13:29:22;;;;;;;4.43;1.00;;;;;;;;;;5070145;28;20479;-64
2024/01/15 13:31:48;;;;;;;2.65;0.80;;;;;;;;;;5070739;28;20391;-64
2024/01/15 13:34:13;;;;;;;3.47;0.77;;;;;;;;;;5069390;28;20779;-64
2024/01/15 13:36:39;;;;;;;5.33;1.00;;;;;;;;;;5070665;28;20399;-64
2024/01/15 13:39:08;;;;;;;4.05;0.80;;;;;;;;;;5070052;28;20495;-64
2024/01/15 13:41:33;;;;;;;3.75;1.00;;;;;;;;;;5069795;28;20901;-63
2024/01/15 13:43:59;;;;;;;2.57;0.80;;;;;;;;;;5068285;28;20443;-63
2024/01/15 13:46:26;;;;;;;2.95;0.80;;;;;;;;;;5031902;28;20442;-63
2024/01/15 13:48:52;;;;;;;4.68;1.05;;;;;;;;;;5049229;28;20393;-63
2024/01/15 13:51:17;;;;;;;3.90;1.10;;;;;;;;;;5049889;28;20413;-63
2024/01/15 13:53:42;;;;;;;4.20;0.90;;;;;;;;;;5050450;28;20403;-63
2024/01/15 13:56:10;;;;;;;4.70;0.90;;;;;;;;;;5049141;28;20416;-63
2024/01/15 13:58:35;;;;;;;6.28;1.55;;;;;;;;;;5050277;28;20472;-63
2024/01/15 14:01:01;;;;;;;5.03;1.17;;;;;;;;;;5031393;28;20794;-63
2024/01/15 14:03:26;;;;;;;5.78;1.20;;;;;;;;;;5049863;28;20421;-62
2024/01/15 14:05:51;;;;;;;4.67;1.20;;;;;;;;;;5050376;28;20416;-62
2024/01/15 14:08:17;;;;;;;5.20;1.20;;;;;;;;;;5047588;28;20401;-62
2024/01/15 14:10:42;;;;;;;6.00;1.45;;;;;;;;;;5049651;28;20398;-62
2024/01/15 14:13:08;;;;;;;4.83;1.00;;;;;;;;;;5071818;28;20388;-62
2024/01/15 14:15:33;;;;;;;5.70;1.15;;;;;;;;;;5073410;28;20508;-62
2024/01/15 14:18:00;;;;;;;4.57;1.00;;;;;;;;;;5070452;28;20463;-62
2024/01/15 14:20:25;;;;;;;5.38;1.48;;;;;;;;;;5053146;28;20406;-62
2024/01/15 14:22:50;;;;;;;5.23;1.13;;;;;;;;;;5052997;28;20397;-62
2024/01/15 14:25:16;;;;;;;5.80;1.27;;;;;;;;;;5053421;28;20413;-62
2024/01/15 14:27:41;;;;;;;5.37;1.30;;;;;;;;;;5053818;28;20462;-62
2024/01/15 14:30:08;;;;;;;5.40;1.20;;;;;;;;;;5052570;28;20393;-63